sensor_id;sensor_type;location;lat;lon;timestamp;temperature;humidity
18894;DHT22;9579;49.488;8.226;2023-11-21T00:00:44;11.90;99.90
18894;DHT22;9579;49.488;8.226;2023-11-21T00:03:31;11.80;99.90
18894;DHT22;9579;49.488;8.226;2023-11-21T00:06:20;11.90;99.90
18894;DHT22;9579;49.488;8.226;2023-11-21T00:09:07;11.80;99.90
18894;DHT22;9579;49.488;8.226;2023-11-21T00:11:55;11.80;99.90
18894;DHT22;9579;49.488;8.226;2023-11-21T00:14:42;11.70;99.90
18894;DHT22;9579;49.488;8.226;2023-11-21T00:17:29;11.70;99.90
18894;DHT22;9579;49.488;8.226;2023-11-21T00:20:16;11.80;99.90
18894;DHT22;9579;49.488;8.226;2023-11-21T00:23:05;11.80;99.90
18894;DHT22;9579;49.488;8.226;2023-11-21T00:25:52;11.90;99.90
18894;DHT22;9579;49.488;8.226;2023-11-21T00:28:39;11.90;99.90
18894;DHT22;9579;49.488;8.226;2023-11-21T00:31:26;11.90;99.90
18894;DHT22;9579;49.488;8.226;2023-11-21T00:34:13;11.90;99.90
18894;DHT22;9579;49.488;8.226;2023-11-21T00:37:00;11.90;99.90
18894;DHT22;9579;49.488;8.226;2023-11-21T00:39:49;11.80;99.90
18894;DHT22;9579;49.488;8.226;2023-11-21T00:42:37;11.80;99.90
18894;DHT22;9579;49.488;8.226;2023-11-21T00:45:24;11.90;99.90
18894;DHT22;9579;49.488;8.226;2023-11-21T00:48:11;11.90;99.90
18894;DHT22;9579;49.488;8.226;2023-11-21T00:50:59;11.90;99.90
18894;DHT22;9579;49.488;8.226;2023-11-21T00:53:47;11.80;99.90
18894;DHT22;9579;49.488;8.226;2023-11-21T00:56:35;11.90;99.90
18894;DHT22;9579;49.488;8.226;2023-11-21T00:59:23;11.90;99.90
18894;DHT22;9579;49.488;8.226;2023-11-21T01:02:10;11.90;99.90
18894;DHT22;9579;49.488;8.226;2023-11-21T01:04:57;12.00;99.90
18894;DHT22;9579;49.488;8.226;2023-11-21T01:07:44;12.00;99.90
18894;DHT22;9579;49.488;8.226;2023-11-21T01:10:31;12.00;99.90
18894;DHT22;9579;49.488;8.226;2023-11-21T01:13:21;12.00;99.90
18894;DHT22;9579;49.488;8.226;2023-11-21T01:16:08;12.00;99.90
18894;DHT22;9579;49.488;8.226;2023-11-21T01:18:55;11.90;99.90
18894;DHT22;9579;49.488;8.226;2023-11-21T01:21:42;11.90;99.90
18894;DHT22;9579;49.488;8.226;2023-11-21T01:24:29;12.00;99.90
18894;DHT22;9579;49.488;8.226;2023-11-21T01:27:16;12.00;99.90
18894;DHT22;9579;49.488;8.226;2023-11-21T01:30:06;12.00;99.90
18894;DHT22;9579;49.488;8.226;2023-11-21T01:32:56;12.00;99.90
18894;DHT22;9579;49.488;8.226;2023-11-21T01:35:43;12.00;99.90
18894;DHT22;9579;49.488;8.226;2023-11-21T01:38:32;12.00;99.90
18894;DHT22;9579;49.488;8.226;2023-11-21T01:41:19;12.10;99.90
18894;DHT22;9579;49.488;8.226;2023-11-21T01:44:06;12.10;99.90
18894;DHT22;9579;49.488;8.226;2023-11-21T01:46:56;12.10;99.90
18894;DHT22;9579;49.488;8.226;2023-11-21T01:49:45;12.10;99.90
18894;DHT22;9579;49.488;8.226;2023-11-21T01:52:33;12.20;99.90
18894;DHT22;9579;49.488;8.226;2023-11-21T01:55:21;12.20;99.90
18894;DHT22;9579;49.488;8.226;2023-11-21T01:58:09;12.20;99.90
18894;DHT22;9579;49.488;8.226;2023-11-21T02:00:58;12.20;99.90
18894;DHT22;9579;49.488;8.226;2023-11-21T02:03:46;12.20;99.90
18894;DHT22;9579;49.488;8.226;2023-11-21T02:06:33;12.20;99.90
18894;DHT22;9579;49.488;8.226;2023-11-21T02:09:25;12.20;99.90
18894;DHT22;9579;49.488;8.226;2023-11-21T02:12:12;12.20;99.90
18894;DHT22;9579;49.488;8.226;2023-11-21T02:14:59;12.10;99.90
18894;DHT22;9579;49.488;8.226;2023-11-21T02:17:47;12.20;99.90
18894;DHT22;9579;49.488;8.226;2023-11-21T02:20:38;12.20;99.90
18894;DHT22;9579;49.488;8.226;2023-11-21T02:23:28;12.30;99.90
18894;DHT22;9579;49.488;8.226;2023-11-21T02:26:15;12.20;99.90
18894;DHT22;9579;49.488;8.226;2023-11-21T02:29:03;12.20;99.90
18894;DHT22;9579;49.488;8.226;2023-11-21T02:31:52;12.10;99.90
18894;DHT22;9579;49.488;8.226;2023-11-21T02:34:40;12.10;99.90
18894;DHT22;9579;49.488;8.226;2023-11-21T02:37:28;12.10;99.90
18894;DHT22;9579;49.488;8.226;2023-11-21T02:40:17;12.10;99.90
18894;DHT22;9579;49.488;8.226;2023-11-21T02:43:06;12.20;99.90
18894;DHT22;9579;49.488;8.226;2023-11-21T02:45:53;12.30;99.90
18894;DHT22;9579;49.488;8.226;2023-11-21T02:48:40;12.30;99.90
18894;DHT22;9579;49.488;8.226;2023-11-21T02:51:27;12.30;99.90
18894;DHT22;9579;49.488;8.226;2023-11-21T02:54:14;12.30;99.90
18894;DHT22;9579;49.488;8.226;2023-11-21T02:57:04;12.20;99.90
18894;DHT22;9579;49.488;8.226;2023-11-21T02:59:51;12.30;99.90
18894;DHT22;9579;49.488;8.226;2023-11-21T03:02:38;12.30;99.90
18894;DHT22;9579;49.488;8.226;2023-11-21T03:05:25;12.20;99.90
18894;DHT22;9579;49.488;8.226;2023-11-21T03:08:12;12.20;99.90
18894;DHT22;9579;49.488;8.226;2023-11-21T03:10:59;12.20;99.90
18894;DHT22;9579;49.488;8.226;2023-11-21T03:13:48;12.10;99.90
18894;DHT22;9579;49.488;8.226;2023-11-21T03:16:35;12.10;99.90
18894;DHT22;9579;49.488;8.226;2023-11-21T03:19:23;12.10;99.90
18894;DHT22;9579;49.488;8.226;2023-11-21T03:22:10;12.10;99.90
18894;DHT22;9579;49.488;8.226;2023-11-21T03:24:58;12.10;99.90
18894;DHT22;9579;49.488;8.226;2023-11-21T03:27:46;12.20;99.90
18894;DHT22;9579;49.488;8.226;2023-11-21T03:30:34;12.20;99.90
18894;DHT22;9579;49.488;8.226;2023-11-21T03:33:21;12.20;99.90
18894;DHT22;9579;49.488;8.226;2023-11-21T03:36:09;12.20;99.90
18894;DHT22;9579;49.488;8.226;2023-11-21T03:38:56;12.20;99.90
18894;DHT22;9579;49.488;8.226;2023-11-21T03:41:43;12.20;99.90
18894;DHT22;9579;49.488;8.226;2023-11-21T03:44:30;12.20;99.90
18894;DHT22;9579;49.488;8.226;2023-11-21T03:47:18;12.20;99.90
18894;DHT22;9579;49.488;8.226;2023-11-21T03:50:06;12.20;99.90
18894;DHT22;9579;49.488;8.226;2023-11-21T03:52:54;12.20;99.90
18894;DHT22;9579;49.488;8.226;2023-11-21T03:55:41;12.10;99.90
18894;DHT22;9579;49.488;8.226;2023-11-21T03:58:28;12.10;99.90
18894;DHT22;9579;49.488;8.226;2023-11-21T04:01:20;12.10;99.90
18894;DHT22;9579;49.488;8.226;2023-11-21T04:04:09;12.10;99.90
18894;DHT22;9579;49.488;8.226;2023-11-21T04:06:56;12.10;99.90
18894;DHT22;9579;49.488;8.226;2023-11-21T04:09:43;12.10;99.90
18894;DHT22;9579;49.488;8.226;2023-11-21T04:12:30;12.20;99.90
18894;DHT22;9579;49.488;8.226;2023-11-21T04:15:17;12.20;99.90
18894;DHT22;9579;49.488;8.226;2023-11-21T04:18:04;12.10;99.90
18894;DHT22;9579;49.488;8.226;2023-11-21T04:20:53;12.10;99.90
18894;DHT22;9579;49.488;8.226;2023-11-21T04:23:40;12.10;99.90
18894;DHT22;9579;49.488;8.226;2023-11-21T04:26:27;12.10;99.90
18894;DHT22;9579;49.488;8.226;2023-11-21T04:29:14;12.10;99.90
18894;DHT22;9579;49.488;8.226;2023-11-21T04:32:01;12.00;99.90
18894;DHT22;9579;49.488;8.226;2023-11-21T04:34:49;12.00;99.90
18894;DHT22;9579;49.488;8.226;2023-11-21T04:37:37;12.00;99.90
18894;DHT22;9579;49.488;8.226;2023-11-21T04:40:25;12.00;99.90
18894;DHT22;9579;49.488;8.226;2023-11-21T04:43:12;12.00;99.90
18894;DHT22;9579;49.488;8.226;2023-11-21T04:46:00;12.00;99.90
18894;DHT22;9579;49.488;8.226;2023-11-21T04:48:48;12.10;99.90
18894;DHT22;9579;49.488;8.226;2023-11-21T04:51:35;12.10;99.90
18894;DHT22;9579;49.488;8.226;2023-11-21T04:54:23;12.10;99.90
18894;DHT22;9579;49.488;8.226;2023-11-21T04:57:10;12.20;99.90
18894;DHT22;9579;49.488;8.226;2023-11-21T04:59:58;12.20;99.90
18894;DHT22;9579;49.488;8.226;2023-11-21T05:02:45;12.30;99.90
18894;DHT22;9579;49.488;8.226;2023-11-21T05:05:32;12.30;99.90
18894;DHT22;9579;49.488;8.226;2023-11-21T05:08:19;12.30;99.90
18894;DHT22;9579;49.488;8.226;2023-11-21T05:11:09;12.30;99.90
18894;DHT22;9579;49.488;8.226;2023-11-21T05:13:57;12.30;99.90
18894;DHT22;9579;49.488;8.226;2023-11-21T06:21:28;12.20;99.90
18894;DHT22;9579;49.488;8.226;2023-11-21T06:24:16;10.70;99.90
18894;DHT22;9579;49.488;8.226;2023-11-21T06:27:06;11.50;99.90
18894;DHT22;9579;49.488;8.226;2023-11-21T06:29:54;12.90;99.90
18894;DHT22;9579;49.488;8.226;2023-11-21T06:32:42;12.30;99.90
18894;DHT22;9579;49.488;8.226;2023-11-21T07:29:57;12.40;99.90
18894;DHT22;9579;49.488;8.226;2023-11-21T07:35:55;12.30;99.90
18894;DHT22;9579;49.488;8.226;2023-11-21T07:39:09;11.00;99.90
18894;DHT22;9579;49.488;8.226;2023-11-21T07:42:14;11.90;99.90
18894;DHT22;9579;49.488;8.226;2023-11-21T08:22:06;12.40;99.90
18894;DHT22;9579;49.488;8.226;2023-11-21T09:06:34;12.50;99.90
18894;DHT22;9579;49.488;8.226;2023-11-21T09:09:23;12.40;99.90
18894;DHT22;9579;49.488;8.226;2023-11-21T11:25:41;12.90;99.90
18894;DHT22;9579;49.488;8.226;2023-11-21T11:28:38;13.00;99.90
18894;DHT22;9579;49.488;8.226;2023-11-21T11:31:31;13.20;99.90
18894;DHT22;9579;49.488;8.226;2023-11-21T11:34:29;13.30;99.90
18894;DHT22;9579;49.488;8.226;2023-11-21T11:37:19;13.40;99.90
18894;DHT22;9579;49.488;8.226;2023-11-21T11:40:07;13.60;99.90
18894;DHT22;9579;49.488;8.226;2023-11-21T11:43:01;13.70;99.90
18894;DHT22;9579;49.488;8.226;2023-11-21T11:45:49;14.10;99.90
18894;DHT22;9579;49.488;8.226;2023-11-21T11:48:38;14.50;99.90
18894;DHT22;9579;49.488;8.226;2023-11-21T11:51:26;14.80;99.90
18894;DHT22;9579;49.488;8.226;2023-11-21T11:54:13;14.90;99.90
18894;DHT22;9579;49.488;8.226;2023-11-21T11:57:00;14.90;99.90
18894;DHT22;9579;49.488;8.226;2023-11-21T12:00:08;14.90;99.90
18894;DHT22;9579;49.488;8.226;2023-11-21T12:02:58;14.90;99.90
18894;DHT22;9579;49.488;8.226;2023-11-21T12:05:47;14.80;99.90
18894;DHT22;9579;49.488;8.226;2023-11-21T12:08:38;14.70;99.90
18894;DHT22;9579;49.488;8.226;2023-11-21T12:11:30;14.50;99.90
18894;DHT22;9579;49.488;8.226;2023-11-21T12:14:17;14.50;99.90
18894;DHT22;9579;49.488;8.226;2023-11-21T12:17:06;14.50;99.90
18894;DHT22;9579;49.488;8.226;2023-11-21T12:19:53;14.50;99.90
18894;DHT22;9579;49.488;8.226;2023-11-21T12:22:42;14.50;99.90
18894;DHT22;9579;49.488;8.226;2023-11-21T12:25:30;14.50;99.90
18894;DHT22;9579;49.488;8.226;2023-11-21T12:28:18;14.50;99.90
18894;DHT22;9579;49.488;8.226;2023-11-21T12:31:08;14.60;99.90
18894;DHT22;9579;49.488;8.226;2023-11-21T12:33:56;14.80;99.90
18894;DHT22;9579;49.488;8.226;2023-11-21T12:36:44;14.90;99.90
18894;DHT22;9579;49.488;8.226;2023-11-21T12:39:31;14.90;99.90
18894;DHT22;9579;49.488;8.226;2023-11-21T12:42:18;14.90;99.90
18894;DHT22;9579;49.488;8.226;2023-11-21T12:45:18;14.90;99.90
18894;DHT22;9579;49.488;8.226;2023-11-21T12:48:06;14.80;99.90
18894;DHT22;9579;49.488;8.226;2023-11-21T12:50:55;14.80;99.90
18894;DHT22;9579;49.488;8.226;2023-11-21T12:53:46;14.80;99.90
18894;DHT22;9579;49.488;8.226;2023-11-21T12:56:33;14.80;99.90
18894;DHT22;9579;49.488;8.226;2023-11-21T12:59:20;14.90;99.90
18894;DHT22;9579;49.488;8.226;2023-11-21T13:02:08;15.00;99.90
18894;DHT22;9579;49.488;8.226;2023-11-21T13:04:57;15.20;99.90
18894;DHT22;9579;49.488;8.226;2023-11-21T13:07:45;15.30;99.90
18894;DHT22;9579;49.488;8.226;2023-11-21T13:10:35;15.70;99.90
18894;DHT22;9579;49.488;8.226;2023-11-21T13:13:23;15.90;99.90
18894;DHT22;9579;49.488;8.226;2023-11-21T13:16:13;16.10;99.90
18894;DHT22;9579;49.488;8.226;2023-11-21T13:19:01;16.10;99.90
18894;DHT22;9579;49.488;8.226;2023-11-21T13:21:49;16.10;99.90
18894;DHT22;9579;49.488;8.226;2023-11-21T13:24:37;15.90;99.90
18894;DHT22;9579;49.488;8.226;2023-11-21T13:27:24;15.80;99.90
18894;DHT22;9579;49.488;8.226;2023-11-21T13:30:12;15.70;99.90
18894;DHT22;9579;49.488;8.226;2023-11-21T13:33:03;15.70;99.90
18894;DHT22;9579;49.488;8.226;2023-11-21T13:35:52;15.70;99.90
18894;DHT22;9579;49.488;8.226;2023-11-21T13:38:39;15.70;99.90
18894;DHT22;9579;49.488;8.226;2023-11-21T13:41:29;15.70;99.90
18894;DHT22;9579;49.488;8.226;2023-11-21T13:44:17;16.10;99.90
18894;DHT22;9579;49.488;8.226;2023-11-21T13:47:12;16.50;99.90
18894;DHT22;9579;49.488;8.226;2023-11-21T13:49:59;16.60;99.90
18894;DHT22;9579;49.488;8.226;2023-11-21T13:52:49;16.70;99.90
18894;DHT22;9579;49.488;8.226;2023-11-21T13:55:37;16.70;99.90
18894;DHT22;9579;49.488;8.226;2023-11-21T13:58:29;16.50;99.90
18894;DHT22;9579;49.488;8.226;2023-11-21T14:01:29;16.50;99.90
18894;DHT22;9579;49.488;8.226;2023-11-21T14:04:31;16.60;99.90
18894;DHT22;9579;49.488;8.226;2023-11-21T14:07:38;16.40;99.90
18894;DHT22;9579;49.488;8.226;2023-11-21T14:10:33;16.30;99.90
18894;DHT22;9579;49.488;8.226;2023-11-21T14:13:27;16.30;99.90
18894;DHT22;9579;49.488;8.226;2023-11-21T14:16:14;16.10;99.90
18894;DHT22;9579;49.488;8.226;2023-11-21T14:19:02;15.90;99.90
18894;DHT22;9579;49.488;8.226;2023-11-21T14:21:59;15.70;99.90
18894;DHT22;9579;49.488;8.226;2023-11-21T14:24:47;15.50;99.90
18894;DHT22;9579;49.488;8.226;2023-11-21T14:27:36;15.40;99.90
18894;DHT22;9579;49.488;8.226;2023-11-21T14:30:24;15.30;99.90
18894;DHT22;9579;49.488;8.226;2023-11-21T14:33:12;15.40;99.90
18894;DHT22;9579;49.488;8.226;2023-11-21T14:36:02;15.50;99.90
18894;DHT22;9579;49.488;8.226;2023-11-21T14:38:49;15.60;99.90
18894;DHT22;9579;49.488;8.226;2023-11-21T14:41:36;15.70;99.90
18894;DHT22;9579;49.488;8.226;2023-11-21T14:44:25;16.30;99.90
18894;DHT22;9579;49.488;8.226;2023-11-21T14:47:16;16.60;99.90
18894;DHT22;9579;49.488;8.226;2023-11-21T14:50:03;16.50;99.90
18894;DHT22;9579;49.488;8.226;2023-11-21T14:53:11;16.00;99.90
18894;DHT22;9579;49.488;8.226;2023-11-21T14:55:58;15.60;99.90
18894;DHT22;9579;49.488;8.226;2023-11-21T14:58:47;15.30;99.90
18894;DHT22;9579;49.488;8.226;2023-11-21T15:01:34;14.90;99.90
18894;DHT22;9579;49.488;8.226;2023-11-21T15:04:31;14.60;99.90
18894;DHT22;9579;49.488;8.226;2023-11-21T15:07:21;14.40;99.90
18894;DHT22;9579;49.488;8.226;2023-11-21T15:10:12;14.30;99.90
18894;DHT22;9579;49.488;8.226;2023-11-21T15:13:00;14.20;99.90
18894;DHT22;9579;49.488;8.226;2023-11-21T15:15:48;14.10;99.90
18894;DHT22;9579;49.488;8.226;2023-11-21T15:18:35;14.10;99.90
18894;DHT22;9579;49.488;8.226;2023-11-21T15:21:23;14.00;99.90
18894;DHT22;9579;49.488;8.226;2023-11-21T15:24:11;14.00;99.90
18894;DHT22;9579;49.488;8.226;2023-11-21T15:26:58;13.90;99.90
18894;DHT22;9579;49.488;8.226;2023-11-21T15:29:45;13.90;99.90
18894;DHT22;9579;49.488;8.226;2023-11-21T15:32:32;13.80;99.90
18894;DHT22;9579;49.488;8.226;2023-11-21T15:35:20;13.80;99.90
18894;DHT22;9579;49.488;8.226;2023-11-21T15:38:08;13.80;99.90
18894;DHT22;9579;49.488;8.226;2023-11-21T15:40:55;13.80;99.90
18894;DHT22;9579;49.488;8.226;2023-11-21T15:43:44;13.70;99.90
18894;DHT22;9579;49.488;8.226;2023-11-21T15:46:31;13.70;99.90
18894;DHT22;9579;49.488;8.226;2023-11-21T15:49:18;13.60;99.90
18894;DHT22;9579;49.488;8.226;2023-11-21T15:52:07;13.50;99.90
18894;DHT22;9579;49.488;8.226;2023-11-21T15:54:57;13.50;99.90
18894;DHT22;9579;49.488;8.226;2023-11-21T15:57:44;13.50;99.90
18894;DHT22;9579;49.488;8.226;2023-11-21T16:00:31;13.50;99.90
18894;DHT22;9579;49.488;8.226;2023-11-21T16:03:18;13.50;99.90
18894;DHT22;9579;49.488;8.226;2023-11-21T16:06:07;13.50;99.90
18894;DHT22;9579;49.488;8.226;2023-11-21T16:08:55;13.40;99.90
18894;DHT22;9579;49.488;8.226;2023-11-21T16:11:45;13.40;99.90
18894;DHT22;9579;49.488;8.226;2023-11-21T16:14:33;13.40;99.90
18894;DHT22;9579;49.488;8.226;2023-11-21T16:17:24;13.40;99.90
18894;DHT22;9579;49.488;8.226;2023-11-21T16:20:12;13.40;99.90
18894;DHT22;9579;49.488;8.226;2023-11-21T16:23:00;13.40;99.90
18894;DHT22;9579;49.488;8.226;2023-11-21T16:25:47;13.40;99.90
18894;DHT22;9579;49.488;8.226;2023-11-21T16:28:41;13.40;99.90
18894;DHT22;9579;49.488;8.226;2023-11-21T16:31:28;13.40;99.90
18894;DHT22;9579;49.488;8.226;2023-11-21T16:34:18;13.40;99.90
18894;DHT22;9579;49.488;8.226;2023-11-21T16:37:06;13.40;99.90
18894;DHT22;9579;49.488;8.226;2023-11-21T16:39:53;13.30;99.90
18894;DHT22;9579;49.488;8.226;2023-11-21T16:42:40;13.30;99.90
18894;DHT22;9579;49.488;8.226;2023-11-21T16:45:28;13.30;99.90
18894;DHT22;9579;49.488;8.226;2023-11-21T16:48:15;13.30;99.90
18894;DHT22;9579;49.488;8.226;2023-11-21T16:51:02;13.30;99.90
18894;DHT22;9579;49.488;8.226;2023-11-21T16:53:49;13.20;99.90
18894;DHT22;9579;49.488;8.226;2023-11-21T16:56:36;13.20;99.90
18894;DHT22;9579;49.488;8.226;2023-11-21T16:59:23;13.20;99.90
18894;DHT22;9579;49.488;8.226;2023-11-21T17:02:12;13.20;99.90
18894;DHT22;9579;49.488;8.226;2023-11-21T17:04:59;13.20;99.90
18894;DHT22;9579;49.488;8.226;2023-11-21T17:07:46;13.20;99.90
18894;DHT22;9579;49.488;8.226;2023-11-21T17:10:33;13.20;99.90
18894;DHT22;9579;49.488;8.226;2023-11-21T17:13:20;13.10;99.90
18894;DHT22;9579;49.488;8.226;2023-11-21T17:16:07;13.10;99.90
18894;DHT22;9579;49.488;8.226;2023-11-21T17:18:56;13.10;99.90
18894;DHT22;9579;49.488;8.226;2023-11-21T17:21:43;13.10;99.90
18894;DHT22;9579;49.488;8.226;2023-11-21T17:24:31;13.10;99.90
18894;DHT22;9579;49.488;8.226;2023-11-21T17:27:22;13.10;99.90
18894;DHT22;9579;49.488;8.226;2023-11-21T17:30:10;13.10;99.90
18894;DHT22;9579;49.488;8.226;2023-11-21T17:40:46;13.10;99.90
18894;DHT22;9579;49.488;8.226;2023-11-21T17:43:42;12.30;99.90
18894;DHT22;9579;49.488;8.226;2023-11-21T18:21:22;12.60;99.90
18894;DHT22;9579;49.488;8.226;2023-11-21T18:24:25;12.00;99.90
18894;DHT22;9579;49.488;8.226;2023-11-21T18:27:18;12.70;99.90
18894;DHT22;9579;49.488;8.226;2023-11-21T21:02:33;12.60;99.90
18894;DHT22;9579;49.488;8.226;2023-11-21T21:05:22;12.50;99.90
18894;DHT22;9579;49.488;8.226;2023-11-21T21:08:13;13.00;99.90
18894;DHT22;9579;49.488;8.226;2023-11-21T21:11:01;11.00;99.90
18894;DHT22;9579;49.488;8.226;2023-11-21T21:13:49;12.30;99.90
18894;DHT22;9579;49.488;8.226;2023-11-21T21:16:39;12.10;99.90
18894;DHT22;9579;49.488;8.226;2023-11-21T21:19:29;12.90;99.90
18894;DHT22;9579;49.488;8.226;2023-11-21T21:22:18;11.80;99.90
18894;DHT22;9579;49.488;8.226;2023-11-21T21:25:06;13.30;99.90
18894;DHT22;9579;49.488;8.226;2023-11-21T21:27:53;10.80;99.90
18894;DHT22;9579;49.488;8.226;2023-11-21T21:30:40;11.60;99.90
18894;DHT22;9579;49.488;8.226;2023-11-21T21:33:30;12.40;99.90
18894;DHT22;9579;49.488;8.226;2023-11-21T21:38:55;11.30;99.90
18894;DHT22;9579;49.488;8.226;2023-11-21T21:41:43;10.60;99.90
18894;DHT22;9579;49.488;8.226;2023-11-21T21:49:43;11.10;99.90
18894;DHT22;9579;49.488;8.226;2023-11-21T21:52:34;11.80;99.90
18894;DHT22;9579;49.488;8.226;2023-11-21T21:55:24;10.90;99.90
18894;DHT22;9579;49.488;8.226;2023-11-21T21:58:13;10.70;99.90
18894;DHT22;9579;49.488;8.226;2023-11-21T22:03:43;10.90;99.90
18894;DHT22;9579;49.488;8.226;2023-11-21T22:06:45;11.40;99.90
18894;DHT22;9579;49.488;8.226;2023-11-21T22:09:36;10.80;99.90
18894;DHT22;9579;49.488;8.226;2023-11-21T22:15:15;10.80;99.90
18894;DHT22;9579;49.488;8.226;2023-11-21T22:18:04;11.10;99.90
18894;DHT22;9579;49.488;8.226;2023-11-21T22:20:52;11.40;99.90
18894;DHT22;9579;49.488;8.226;2023-11-21T22:26:15;10.60;99.90
18894;DHT22;9579;49.488;8.226;2023-11-21T22:29:03;10.60;99.90
18894;DHT22;9579;49.488;8.226;2023-11-21T22:31:56;11.40;99.90
18894;DHT22;9579;49.488;8.226;2023-11-21T22:34:46;10.40;99.90
18894;DHT22;9579;49.488;8.226;2023-11-21T22:37:34;10.20;99.90
18894;DHT22;9579;49.488;8.226;2023-11-21T22:40:24;11.50;99.90
18894;DHT22;9579;49.488;8.226;2023-11-21T22:43:16;8.70;99.90
18894;DHT22;9579;49.488;8.226;2023-11-21T22:46:04;10.20;99.90
18894;DHT22;9579;49.488;8.226;2023-11-21T22:48:51;11.30;99.90
18894;DHT22;9579;49.488;8.226;2023-11-21T22:51:41;11.10;99.90
18894;DHT22;9579;49.488;8.226;2023-11-21T22:54:30;8.80;99.90
18894;DHT22;9579;49.488;8.226;2023-11-21T22:57:19;10.30;99.90
18894;DHT22;9579;49.488;8.226;2023-11-21T23:00:08;10.10;99.90
18894;DHT22;9579;49.488;8.226;2023-11-21T23:03:00;10.10;99.90
18894;DHT22;9579;49.488;8.226;2023-11-21T23:05:49;9.80;99.90
18894;DHT22;9579;49.488;8.226;2023-11-21T23:08:38;11.20;99.90
18894;DHT22;9579;49.488;8.226;2023-11-21T23:11:25;10.10;99.90
18894;DHT22;9579;49.488;8.226;2023-11-21T23:14:13;9.90;99.90
18894;DHT22;9579;49.488;8.226;2023-11-21T23:17:03;10.40;99.90
18894;DHT22;9579;49.488;8.226;2023-11-21T23:19:50;9.80;99.90
18894;DHT22;9579;49.488;8.226;2023-11-21T23:22:50;9.80;99.90
18894;DHT22;9579;49.488;8.226;2023-11-21T23:25:44;8.40;99.90
18894;DHT22;9579;49.488;8.226;2023-11-21T23:28:36;11.00;99.90
18894;DHT22;9579;49.488;8.226;2023-11-21T23:31:28;9.70;99.90
18894;DHT22;9579;49.488;8.226;2023-11-21T23:34:16;10.60;99.90
18894;DHT22;9579;49.488;8.226;2023-11-21T23:37:03;9.70;99.90
18894;DHT22;9579;49.488;8.226;2023-11-21T23:39:51;9.80;99.90
18894;DHT22;9579;49.488;8.226;2023-11-21T23:42:39;9.60;99.90
18894;DHT22;9579;49.488;8.226;2023-11-21T23:45:26;9.50;99.90
18894;DHT22;9579;49.488;8.226;2023-11-21T23:48:13;9.50;99.90
18894;DHT22;9579;49.488;8.226;2023-11-21T23:51:01;9.30;99.90
18894;DHT22;9579;49.488;8.226;2023-11-21T23:53:48;9.30;99.90
18894;DHT22;9579;49.488;8.226;2023-11-21T23:56:36;9.40;99.90
18894;DHT22;9579;49.488;8.226;2023-11-21T23:59:23;9.40;99.90
